createdAt,value
2022-07-29T00:02:02.226Z,100290.03
2022-07-29T00:05:14.689Z,100295.13
2022-07-29T00:08:22.682Z,100292.69
2022-07-29T00:11:30.280Z,100293.28
2022-07-29T00:14:37.211Z,100297.59
2022-07-29T00:17:45.011Z,100288.53
2022-07-29T00:20:54.972Z,100284.94
2022-07-29T00:24:03.478Z,100279.69
2022-07-29T00:27:11.160Z,100281.81
2022-07-29T00:30:19.921Z,100279.59
2022-07-29T00:33:27.120Z,100276.69
2022-07-29T00:36:35.821Z,100280.19
2022-07-29T00:39:43.688Z,100281.81
2022-07-29T00:42:53.875Z,100286.78
2022-07-29T00:46:00.812Z,100284.78
2022-07-29T00:49:10.490Z,100280.91
2022-07-29T00:52:17.720Z,100281.22
2022-07-29T00:55:25.018Z,100276.31
2022-07-29T00:58:33.738Z,100281.28
2022-07-29T01:01:41.658Z,100282.53
2022-07-29T01:04:49.751Z,100274.97
2022-07-29T01:07:59.008Z,100274.97
2022-07-29T01:11:08.179Z,100272.53
2022-07-29T01:14:18.989Z,100267.63
2022-07-29T01:17:32.670Z,100271.16
2022-07-29T01:21:02.866Z,100269.72
2022-07-29T01:24:45.871Z,100271.81
2022-07-29T01:28:06.421Z,100273.50
2022-07-29T01:31:30.921Z,100261.41
2022-07-29T01:34:58.649Z,100266.38
2022-07-29T01:38:25.992Z,100274.37
2022-07-29T01:41:36.993Z,100280.16
2022-07-29T01:45:25.292Z,100271.75
2022-07-29T01:48:46.718Z,100262.78
2022-07-29T01:52:02.577Z,100266.50
2022-07-29T01:55:18.362Z,100269.22
2022-07-29T01:58:27.389Z,100270.44
2022-07-29T02:01:37.134Z,100269.00
2022-07-29T02:04:45.574Z,100268.19
2022-07-29T02:07:55.379Z,100266.56
2022-07-29T02:11:05.169Z,100265.97
2022-07-29T02:14:14.925Z,100269.03
2022-07-29T02:17:33.129Z,100262.72
2022-07-29T02:20:43.108Z,100256.78
2022-07-29T02:23:50.871Z,100260.09
2022-07-29T02:27:03.658Z,100261.34
2022-07-29T02:30:13.443Z,100260.16
2022-07-29T02:33:22.698Z,100267.56
2022-07-29T02:36:30.419Z,100278.22
2022-07-29T02:39:39.570Z,100260.00
2022-07-29T02:42:51.238Z,100264.72
2022-07-29T02:45:59.201Z,100265.75
2022-07-29T02:49:12.908Z,100261.28
2022-07-29T02:52:44.700Z,100265.34
2022-07-29T02:56:22.227Z,100262.75
2022-07-29T02:59:37.891Z,100268.06
2022-07-29T03:02:48.845Z,100268.06
2022-07-29T03:06:01.287Z,100269.47
2022-07-29T03:09:13.567Z,100265.41
2022-07-29T03:12:21.810Z,100271.97
2022-07-29T03:15:29.520Z,100265.84
2022-07-29T03:18:38.840Z,100269.53
2022-07-29T03:21:47.579Z,100267.87
2022-07-29T03:24:57.692Z,100271.59
2022-07-29T03:28:06.128Z,100273.22
2022-07-29T03:31:13.827Z,100275.47
2022-07-29T03:34:21.919Z,100274.25
2022-07-29T03:37:33.931Z,100273.88
2022-07-29T03:40:55.577Z,100272.22
2022-07-29T03:44:03.746Z,100271.00
2022-07-29T03:47:12.788Z,100276.09
2022-07-29T03:50:22.888Z,100282.25
2022-07-29T03:53:31.465Z,100280.22
2022-07-29T03:56:44.793Z,100286.16
2022-07-29T03:59:54.491Z,100285.94
2022-07-29T04:03:02.689Z,100290.44
2022-07-29T04:06:11.877Z,100288.59
2022-07-29T04:09:19.887Z,100295.09
2022-07-29T04:12:28.772Z,100297.13
2022-07-29T04:15:39.379Z,100294.84
2022-07-29T04:18:50.469Z,100297.63
2022-07-29T04:22:00.357Z,100290.34
2022-07-29T04:25:07.429Z,100296.47
2022-07-29T04:28:23.472Z,100291.03
2022-07-29T04:31:30.691Z,100293.75
2022-07-29T04:34:36.743Z,100294.84
2022-07-29T04:37:42.390Z,100293.66
2022-07-29T04:40:49.790Z,100292.50
2022-07-29T04:44:07.533Z,100305.88
2022-07-29T04:47:15.188Z,100309.72
2022-07-29T04:50:23.636Z,100309.16
2022-07-29T04:53:31.082Z,100306.44
2022-07-29T04:56:37.185Z,100308.47
2022-07-29T04:59:43.665Z,100303.66
2022-07-29T05:02:49.694Z,100308.72
2022-07-29T05:05:55.708Z,100307.03
2022-07-29T05:09:01.338Z,100304.47
2022-07-29T05:12:07.656Z,100314.59
2022-07-29T05:15:13.390Z,100317.06
2022-07-29T05:18:19.505Z,100308.22
2022-07-29T05:21:25.198Z,100307.38
2022-07-29T05:24:31.077Z,100317.12
2022-07-29T05:27:38.445Z,100311.75
2022-07-29T05:30:46.022Z,100316.09
2022-07-29T05:33:52.144Z,100320.12
2022-07-29T05:36:58.078Z,100324.53
2022-07-29T05:40:04.697Z,100318.03
2022-07-29T05:43:10.818Z,100312.34
2022-07-29T05:46:16.806Z,100317.84
2022-07-29T05:49:27.375Z,100319.19
2022-07-29T05:52:33.446Z,100327.75
2022-07-29T05:55:39.408Z,100330.44
2022-07-29T05:58:45.387Z,100331.84
2022-07-29T06:01:51.690Z,100328.31
2022-07-29T06:04:57.516Z,100324.09
2022-07-29T06:08:03.970Z,100333.88
2022-07-29T06:11:12.755Z,100335.81
2022-07-29T06:14:19.334Z,100328.13
2022-07-29T06:17:26.420Z,100325.06
2022-07-29T06:20:33.326Z,100327.06
2022-07-29T06:23:40.308Z,100326.72
2022-07-29T06:26:46.136Z,100330.56
2022-07-29T06:29:52.285Z,100327.97
2022-07-29T06:32:58.138Z,100324.56
2022-07-29T06:36:07.142Z,100320.41
2022-07-29T06:39:13.851Z,100326.91
2022-07-29T06:42:19.822Z,100324.28
2022-07-29T06:45:26.022Z,100323.81
2022-07-29T06:48:34.972Z,100314.09
2022-07-29T06:51:40.921Z,100312.78
2022-07-29T06:54:49.723Z,100314.94
2022-07-29T06:57:55.635Z,100313.03
2022-07-29T07:01:04.936Z,100315.78
2022-07-29T07:04:11.452Z,100313.53
2022-07-29T07:07:17.245Z,100308.66
2022-07-29T07:10:24.582Z,100308.37
2022-07-29T07:13:36.858Z,100305.37
2022-07-29T07:16:43.719Z,100311.78
2022-07-29T07:19:50.392Z,100308.84
2022-07-29T07:22:56.999Z,100297.63
2022-07-29T07:26:03.662Z,100303.34
2022-07-29T07:29:09.736Z,100301.22
2022-07-29T07:32:17.955Z,100303.06
2022-07-29T07:35:24.473Z,100301.94
2022-07-29T07:38:30.526Z,100305.19
2022-07-29T07:41:36.894Z,100304.63
2022-07-29T07:45:10.951Z,100307.78
2022-07-29T07:48:11.776Z,100306.06
2022-07-29T07:51:17.549Z,100307.75
2022-07-29T07:54:23.889Z,100306.19
2022-07-29T07:57:30.264Z,100305.22
2022-07-29T08:00:36.077Z,100306.97
2022-07-29T08:03:42.011Z,100302.28
2022-07-29T08:06:47.885Z,100310.91
2022-07-29T08:09:55.188Z,100301.25
2022-07-29T08:13:01.169Z,100296.66
2022-07-29T08:16:14.540Z,100301.09
2022-07-29T08:19:20.437Z,100295.41
2022-07-29T08:22:26.948Z,100294.81
2022-07-29T08:25:33.085Z,100293.91
2022-07-29T08:28:47.635Z,100294.97
2022-07-29T08:31:54.081Z,100298.66
2022-07-29T08:35:00.162Z,100306.09
2022-07-29T08:38:05.923Z,100298.34
2022-07-29T08:41:12.294Z,100299.88
2022-07-29T08:44:25.313Z,100293.47
2022-07-29T08:47:48.838Z,100293.16
2022-07-29T08:50:58.317Z,100296.41
2022-07-29T08:54:05.732Z,100298.22
2022-07-29T08:57:15.359Z,100299.19
2022-07-29T09:00:24.976Z,100293.31
2022-07-29T09:03:33.450Z,100299.44
2022-07-29T09:06:42.312Z,100297.72
2022-07-29T09:09:49.160Z,100300.88
2022-07-29T09:12:56.914Z,100301.31
2022-07-29T09:16:08.930Z,100302.69
2022-07-29T09:19:36.650Z,100296.50
2022-07-29T09:22:43.662Z,100300.16
2022-07-29T09:25:49.788Z,100293.78
2022-07-29T09:28:56.535Z,100293.78
2022-07-29T09:32:02.591Z,100289.44
2022-07-29T09:35:19.913Z,100288.09
2022-07-29T09:38:25.952Z,100286.12
2022-07-29T09:41:32.470Z,100282.53
2022-07-29T09:44:51.581Z,100273.81
2022-07-29T09:48:02.330Z,100268.56
2022-07-29T09:51:38.375Z,100262.47
2022-07-29T09:55:13.558Z,100265.72
2022-07-29T09:58:40.531Z,100253.09
2022-07-29T10:01:47.148Z,100240.59
2022-07-29T10:04:54.011Z,100251.16
2022-07-29T10:08:00.134Z,100246.63
2022-07-29T10:11:20.585Z,100248.13
2022-07-29T10:14:30.433Z,100238.91
2022-07-29T10:17:36.599Z,100237.72
2022-07-29T10:20:48.124Z,100233.81
2022-07-29T10:23:55.412Z,100235.19
2022-07-29T10:27:09.007Z,100227.41
2022-07-29T10:30:17.831Z,100221.22
2022-07-29T10:34:28.595Z,100229.31
2022-07-29T10:37:50.860Z,100221.03
2022-07-29T10:41:31.903Z,100220.28
2022-07-29T10:44:59.243Z,100214.13
2022-07-29T10:48:09.944Z,100212.56
2022-07-29T10:51:16.640Z,100211.22
2022-07-29T10:54:46.658Z,100201.06
2022-07-29T10:58:20.228Z,100193.63
2022-07-29T11:01:37.480Z,100195.47
2022-07-29T11:05:02.310Z,100199.13
2022-07-29T11:08:20.331Z,100197.88
2022-07-29T11:11:51.352Z,100184.88
2022-07-29T11:15:21.097Z,100196.84
2022-07-29T11:18:27.988Z,100193.13
2022-07-29T11:21:54.045Z,100181.28
2022-07-29T11:25:17.584Z,100178.97
2022-07-29T11:28:25.373Z,100180.22
2022-07-29T11:31:43.435Z,100180.19
2022-07-29T11:34:50.997Z,100172.13
2022-07-29T11:38:31.885Z,100160.28
2022-07-29T11:41:40.856Z,100160.22
2022-07-29T11:45:43.029Z,100160.16
2022-07-29T11:48:46.196Z,100173.47
2022-07-29T11:51:55.063Z,100147.03
2022-07-29T11:55:09.652Z,100141.19
2022-07-29T11:58:17.861Z,100152.81
2022-07-29T12:01:26.246Z,100150.31
2022-07-29T12:04:35.009Z,100141.56
2022-07-29T12:07:45.401Z,100146.03
2022-07-29T12:10:58.868Z,100136.56
2022-07-29T12:14:05.312Z,100139.25
2022-07-29T12:17:33.614Z,100140.16
2022-07-29T12:20:40.272Z,100130.78
2022-07-29T12:24:09.131Z,100136.56
2022-07-29T12:27:19.658Z,100133.56
2022-07-29T12:30:51.536Z,100128.87
2022-07-29T12:33:58.134Z,100126.16
2022-07-29T12:37:05.175Z,100113.91
2022-07-29T12:40:16.959Z,100114.91
2022-07-29T12:43:24.384Z,100104.34
2022-07-29T12:46:30.424Z,100101.03
2022-07-29T12:49:38.150Z,100093.25
2022-07-29T12:52:45.121Z,100096.50
2022-07-29T12:55:56.375Z,100087.13
2022-07-29T12:59:25.596Z,100086.38
2022-07-29T13:02:32.667Z,100082.88
2022-07-29T13:05:49.345Z,100072.75
2022-07-29T13:09:07.018Z,100078.31
2022-07-29T13:12:13.988Z,100080.25
2022-07-29T13:15:20.258Z,100067.50
2022-07-29T13:18:43.637Z,100058.22
2022-07-29T13:21:51.266Z,100063.22
2022-07-29T13:25:00.416Z,100050.06
2022-07-29T13:28:06.711Z,100046.38
2022-07-29T13:31:13.420Z,100047.72
2022-07-29T13:34:23.592Z,100050.56
2022-07-29T13:37:31.476Z,100044.25
2022-07-29T13:40:38.213Z,100042.59
2022-07-29T13:43:44.279Z,100040.78
2022-07-29T13:46:50.481Z,100027.59
2022-07-29T13:49:56.976Z,100032.88
2022-07-29T13:53:03.259Z,100029.63
2022-07-29T13:56:09.561Z,100017.50
2022-07-29T13:59:15.677Z,100022.22
2022-07-29T14:02:21.735Z,100021.16
2022-07-29T14:05:32.386Z,100020.97
2022-07-29T14:08:38.776Z,100017.03
2022-07-29T14:11:45.247Z,100015.75
2022-07-29T14:14:51.644Z,100018.38
2022-07-29T14:17:58.314Z,100020.09
2022-07-29T14:21:04.637Z,100018.41
2022-07-29T14:24:17.836Z,100020.13
2022-07-29T14:27:38.802Z,100020.44
2022-07-29T14:30:45.091Z,100014.72
2022-07-29T14:33:51.236Z,100015.44
2022-07-29T14:36:57.529Z,100011.16
2022-07-29T14:40:05.893Z,100001.56
2022-07-29T14:43:12.632Z,100010.41
2022-07-29T14:46:18.651Z,100012.53
2022-07-29T14:49:25.057Z,100018.06
2022-07-29T14:52:31.070Z,100008.12
2022-07-29T14:55:37.669Z,100016.81
2022-07-29T14:58:50.142Z,100009.34
2022-07-29T15:02:11.939Z,100003.47
2022-07-29T15:05:19.759Z,100003.50
2022-07-29T15:08:27.144Z,99999.34
2022-07-29T15:11:37.025Z,100001.47
2022-07-29T15:15:01.438Z,99995.81
2022-07-29T15:18:10.986Z,99989.12
2022-07-29T15:21:17.339Z,99982.62
2022-07-29T15:24:23.873Z,99985.28
2022-07-29T15:27:29.972Z,99979.81
2022-07-29T15:30:42.379Z,99979.69
2022-07-29T15:33:48.559Z,99978.75
2022-07-29T15:36:55.352Z,99977.19
2022-07-29T15:40:01.971Z,99968.66
2022-07-29T15:43:08.144Z,99975.09
2022-07-29T15:46:35.464Z,99967.94
2022-07-29T15:49:48.637Z,99965.38
2022-07-29T15:53:11.429Z,99974.47
2022-07-29T15:56:17.141Z,99973.22
2022-07-29T15:59:24.070Z,99976.94
2022-07-29T16:02:29.625Z,99971.66
2022-07-29T16:05:35.764Z,99978.06
2022-07-29T16:08:43.741Z,99969.75
2022-07-29T16:11:51.666Z,99968.16
2022-07-29T16:14:57.967Z,99963.63
2022-07-29T16:18:03.891Z,99961.53
2022-07-29T16:21:10.148Z,99970.22
2022-07-29T16:24:16.700Z,99970.53
2022-07-29T16:27:31.466Z,99969.41
2022-07-29T16:30:58.293Z,99970.37
2022-07-29T16:34:04.456Z,99993.31
2022-07-29T16:37:10.646Z,100000.28
2022-07-29T16:40:17.012Z,99997.28
2022-07-29T16:43:23.238Z,100000.34
2022-07-29T16:46:29.531Z,100003.22
2022-07-29T16:49:36.710Z,99994.03
2022-07-29T16:52:42.984Z,99988.97
2022-07-29T16:55:48.838Z,99988.59
2022-07-29T16:58:55.621Z,99983.16
2022-07-29T17:02:03.376Z,99985.41
2022-07-29T17:05:11.584Z,99989.44
2022-07-29T17:08:17.732Z,99992.84
2022-07-29T17:11:54.114Z,99981.38
2022-07-29T17:14:51.984Z,99983.44
2022-07-29T17:17:59.194Z,99973.19
2022-07-29T17:21:05.830Z,99986.63
2022-07-29T17:24:12.633Z,99986.00
2022-07-29T17:27:19.261Z,99992.63
2022-07-29T17:30:26.568Z,99984.91
2022-07-29T17:33:32.729Z,99990.38
2022-07-29T17:36:39.032Z,99996.47
2022-07-29T17:39:45.228Z,99999.88
2022-07-29T17:42:51.961Z,100002.06
2022-07-29T17:45:59.609Z,100000.63
2022-07-29T17:49:05.875Z,100009.94
2022-07-29T17:52:12.165Z,100018.53
2022-07-29T17:55:18.058Z,100024.75
2022-07-29T17:58:27.570Z,100020.53
2022-07-29T18:01:34.730Z,100021.16
2022-07-29T18:04:42.232Z,100023.50
2022-07-29T18:07:47.867Z,100034.63
2022-07-29T18:10:54.460Z,100028.19
2022-07-29T18:14:02.324Z,100029.16
2022-07-29T18:17:10.112Z,100033.59
2022-07-29T18:20:17.630Z,100044.75
2022-07-29T18:23:24.062Z,100049.06
2022-07-29T18:26:30.667Z,100056.69
2022-07-29T18:29:37.985Z,100057.06
2022-07-29T18:32:59.191Z,100053.56
2022-07-29T18:36:13.930Z,100058.50
2022-07-29T18:39:21.207Z,100052.34
2022-07-29T18:42:36.615Z,100051.81
2022-07-29T18:45:42.842Z,100057.50
2022-07-29T18:48:48.813Z,100053.72
2022-07-29T18:51:54.732Z,100050.78
2022-07-29T18:55:04.417Z,100055.16
2022-07-29T18:58:10.600Z,100064.09
2022-07-29T19:01:16.905Z,100055.47
2022-07-29T19:04:23.299Z,100059.25
2022-07-29T19:07:30.868Z,100061.94
2022-07-29T19:10:38.672Z,100064.13
2022-07-29T19:13:44.756Z,100062.78
2022-07-29T19:16:50.913Z,100060.63
2022-07-29T19:19:56.919Z,100057.16
2022-07-29T19:23:03.031Z,100065.25
2022-07-29T19:26:12.670Z,100059.31
2022-07-29T19:29:42.913Z,100060.38
2022-07-29T19:32:50.288Z,100062.28
2022-07-29T19:35:57.817Z,100051.22
2022-07-29T19:39:04.205Z,100052.31
2022-07-29T19:42:15.230Z,100052.84
2022-07-29T19:45:23.161Z,100051.75
2022-07-29T19:48:29.238Z,100051.25
2022-07-29T19:51:35.537Z,100049.63
2022-07-29T19:54:41.560Z,100059.06
2022-07-29T19:57:48.929Z,100055.28
2022-07-29T20:00:54.742Z,100060.41
2022-07-29T20:04:00.758Z,100061.75
2022-07-29T20:07:07.650Z,100069.31
2022-07-29T20:10:13.818Z,100076.06
2022-07-29T20:13:24.016Z,100069.59
2022-07-29T20:16:31.434Z,100067.16
2022-07-29T20:19:38.567Z,100066.31
2022-07-29T20:22:45.142Z,100065.22
2022-07-29T20:25:51.030Z,100069.00
2022-07-29T20:28:57.117Z,100071.44
2022-07-29T20:32:04.056Z,100069.50
2022-07-29T20:35:10.686Z,100062.50
2022-07-29T20:38:18.498Z,100058.19
2022-07-29T20:41:24.490Z,100061.16
2022-07-29T20:44:30.402Z,100077.59
2022-07-29T20:47:36.321Z,100067.87
2022-07-29T20:50:48.232Z,100063.81
2022-07-29T20:53:54.227Z,100064.34
2022-07-29T20:57:00.776Z,100067.31
2022-07-29T21:00:07.869Z,100063.81
2022-07-29T21:03:14.670Z,100065.44
2022-07-29T21:06:20.460Z,100064.88
2022-07-29T21:09:26.111Z,100056.25
2022-07-29T21:12:31.884Z,100064.59
2022-07-29T21:15:37.968Z,100060.25
2022-07-29T21:18:46.763Z,100053.53
2022-07-29T21:21:53.173Z,100061.31
2022-07-29T21:24:59.013Z,100061.84
2022-07-29T21:28:24.334Z,100066.69
2022-07-29T21:31:30.669Z,100065.34
2022-07-29T21:34:36.472Z,100073.69
2022-07-29T21:37:42.153Z,100068.56
2022-07-29T21:40:50.338Z,100072.59
2022-07-29T21:43:58.411Z,100069.09
2022-07-29T21:47:07.409Z,100063.44
2022-07-29T21:50:13.362Z,100068.81
2022-07-29T21:53:22.853Z,100062.88
2022-07-29T21:56:31.423Z,100064.75
2022-07-29T21:59:37.542Z,100066.63
2022-07-29T22:02:44.213Z,100061.19
2022-07-29T22:05:50.591Z,100067.84
2022-07-29T22:08:59.449Z,100073.19
2022-07-29T22:12:06.017Z,100070.19
2022-07-29T22:15:12.157Z,100063.69
2022-07-29T22:18:20.661Z,100065.03
2022-07-29T22:21:27.033Z,100056.38
2022-07-29T22:24:32.907Z,100069.03
2022-07-29T22:27:39.547Z,100059.31
2022-07-29T22:30:45.569Z,100061.19
2022-07-29T22:33:52.057Z,100056.38
2022-07-29T22:36:59.152Z,100049.38
2022-07-29T22:40:06.513Z,100055.03
2022-07-29T22:43:14.434Z,100055.03
2022-07-29T22:46:20.274Z,100046.03
2022-07-29T22:49:26.076Z,100046.53
2022-07-29T22:52:32.547Z,100041.16
2022-07-29T22:55:38.588Z,100045.75
2022-07-29T22:58:44.610Z,100038.22
2022-07-29T23:01:50.548Z,100035.25
2022-07-29T23:04:56.377Z,100030.13
2022-07-29T23:08:02.706Z,100026.06
2022-07-29T23:11:08.640Z,100026.00
2022-07-29T23:14:14.793Z,100024.66
2022-07-29T23:17:20.546Z,100009.81
2022-07-29T23:20:26.978Z,100017.63
2022-07-29T23:23:32.613Z,100010.06
2022-07-29T23:26:38.602Z,100017.84
2022-07-29T23:29:44.563Z,100019.72
2022-07-29T23:32:50.428Z,100024.00
2022-07-29T23:35:56.184Z,100019.69
2022-07-29T23:39:02.359Z,100011.09
2022-07-29T23:42:08.074Z,100006.78
2022-07-29T23:45:14.914Z,99997.12
2022-07-29T23:48:21.431Z,100003.00
2022-07-29T23:51:29.618Z,100004.81
2022-07-29T23:54:35.438Z,99999.16
2022-07-29T23:57:41.353Z,99991.09
